sensor_id;sensor_type;location;lat;lon;timestamp;P1;durP1;ratioP1;P2;durP2;ratioP2
14019;SDS011;7085;51.428;6.796;2022-10-15T00:01:39;14.18;;;10.43;;
14019;SDS011;7085;51.428;6.796;2022-10-15T00:04:06;11.27;;;9.98;;
14019;SDS011;7085;51.428;6.796;2022-10-15T00:06:33;12.00;;;10.10;;
14019;SDS011;7085;51.428;6.796;2022-10-15T00:09:00;11.68;;;8.77;;
14019;SDS011;7085;51.428;6.796;2022-10-15T00:11:27;11.30;;;9.15;;
14019;SDS011;7085;51.428;6.796;2022-10-15T00:13:57;10.98;;;9.32;;
14019;SDS011;7085;51.428;6.796;2022-10-15T00:16:25;11.88;;;9.32;;
14019;SDS011;7085;51.428;6.796;2022-10-15T00:18:54;11.43;;;9.10;;
14019;SDS011;7085;51.428;6.796;2022-10-15T00:21:21;10.75;;;8.82;;
14019;SDS011;7085;51.428;6.796;2022-10-15T00:23:48;11.75;;;8.43;;
14019;SDS011;7085;51.428;6.796;2022-10-15T00:26:16;9.93;;;8.30;;
14019;SDS011;7085;51.428;6.796;2022-10-15T00:28:43;13.73;;;9.45;;
14019;SDS011;7085;51.428;6.796;2022-10-15T00:31:12;13.05;;;9.65;;
14019;SDS011;7085;51.428;6.796;2022-10-15T00:33:40;14.40;;;9.55;;
14019;SDS011;7085;51.428;6.796;2022-10-15T00:36:09;16.73;;;9.73;;
14019;SDS011;7085;51.428;6.796;2022-10-15T00:38:37;10.82;;;9.07;;
14019;SDS011;7085;51.428;6.796;2022-10-15T00:41:05;13.90;;;9.48;;
14019;SDS011;7085;51.428;6.796;2022-10-15T00:43:36;12.13;;;9.80;;
14019;SDS011;7085;51.428;6.796;2022-10-15T00:46:03;12.55;;;10.05;;
14019;SDS011;7085;51.428;6.796;2022-10-15T00:48:32;12.02;;;9.88;;
14019;SDS011;7085;51.428;6.796;2022-10-15T00:50:59;10.90;;;9.20;;
14019;SDS011;7085;51.428;6.796;2022-10-15T00:53:28;11.38;;;9.23;;
14019;SDS011;7085;51.428;6.796;2022-10-15T00:55:55;10.13;;;9.00;;
14019;SDS011;7085;51.428;6.796;2022-10-15T00:58:22;12.27;;;9.43;;
14019;SDS011;7085;51.428;6.796;2022-10-15T01:00:52;10.50;;;9.27;;
14019;SDS011;7085;51.428;6.796;2022-10-15T01:03:20;12.70;;;9.98;;
14019;SDS011;7085;51.428;6.796;2022-10-15T01:05:49;12.82;;;9.48;;
14019;SDS011;7085;51.428;6.796;2022-10-15T01:08:16;14.70;;;9.55;;
14019;SDS011;7085;51.428;6.796;2022-10-15T01:10:45;11.80;;;8.82;;
14019;SDS011;7085;51.428;6.796;2022-10-15T01:13:16;12.25;;;9.15;;
14019;SDS011;7085;51.428;6.796;2022-10-15T01:15:46;13.00;;;10.00;;
14019;SDS011;7085;51.428;6.796;2022-10-15T01:18:16;14.23;;;10.45;;
14019;SDS011;7085;51.428;6.796;2022-10-15T01:20:47;10.63;;;9.40;;
14019;SDS011;7085;51.428;6.796;2022-10-15T01:23:28;10.88;;;9.73;;
14019;SDS011;7085;51.428;6.796;2022-10-15T01:26:05;14.18;;;9.15;;
14019;SDS011;7085;51.428;6.796;2022-10-15T01:28:36;12.90;;;8.98;;
14019;SDS011;7085;51.428;6.796;2022-10-15T01:31:08;10.20;;;9.18;;
14019;SDS011;7085;51.428;6.796;2022-10-15T01:33:38;12.93;;;10.02;;
14019;SDS011;7085;51.428;6.796;2022-10-15T01:36:08;13.32;;;10.05;;
14019;SDS011;7085;51.428;6.796;2022-10-15T01:38:40;10.30;;;9.27;;
14019;SDS011;7085;51.428;6.796;2022-10-15T01:41:13;10.60;;;9.45;;
14019;SDS011;7085;51.428;6.796;2022-10-15T01:43:43;12.52;;;9.90;;
14019;SDS011;7085;51.428;6.796;2022-10-15T01:46:13;12.63;;;10.00;;
14019;SDS011;7085;51.428;6.796;2022-10-15T01:48:42;14.88;;;10.30;;
14019;SDS011;7085;51.428;6.796;2022-10-15T01:51:09;11.38;;;9.93;;
14019;SDS011;7085;51.428;6.796;2022-10-15T01:53:37;11.32;;;9.75;;
14019;SDS011;7085;51.428;6.796;2022-10-15T01:56:07;11.77;;;10.57;;
14019;SDS011;7085;51.428;6.796;2022-10-15T01:58:35;15.48;;;9.95;;
14019;SDS011;7085;51.428;6.796;2022-10-15T02:01:03;12.10;;;10.02;;
14019;SDS011;7085;51.428;6.796;2022-10-15T02:03:41;12.98;;;10.57;;
14019;SDS011;7085;51.428;6.796;2022-10-15T02:06:09;13.02;;;11.15;;
14019;SDS011;7085;51.428;6.796;2022-10-15T02:08:40;15.93;;;12.48;;
14019;SDS011;7085;51.428;6.796;2022-10-15T02:11:10;13.63;;;12.05;;
14019;SDS011;7085;51.428;6.796;2022-10-15T02:13:41;11.48;;;10.40;;
14019;SDS011;7085;51.428;6.796;2022-10-15T02:16:13;15.00;;;10.77;;
14019;SDS011;7085;51.428;6.796;2022-10-15T02:18:47;12.27;;;11.02;;
14019;SDS011;7085;51.428;6.796;2022-10-15T02:21:18;16.95;;;12.02;;
14019;SDS011;7085;51.428;6.796;2022-10-15T02:23:47;11.80;;;10.68;;
14019;SDS011;7085;51.428;6.796;2022-10-15T02:26:16;12.98;;;11.60;;
14019;SDS011;7085;51.428;6.796;2022-10-15T02:28:45;12.95;;;10.45;;
14019;SDS011;7085;51.428;6.796;2022-10-15T02:31:15;17.75;;;11.65;;
14019;SDS011;7085;51.428;6.796;2022-10-15T02:33:45;13.55;;;11.30;;
14019;SDS011;7085;51.428;6.796;2022-10-15T02:36:13;12.98;;;11.68;;
14019;SDS011;7085;51.428;6.796;2022-10-15T02:38:41;13.40;;;11.93;;
14019;SDS011;7085;51.428;6.796;2022-10-15T02:41:10;13.77;;;12.05;;
14019;SDS011;7085;51.428;6.796;2022-10-15T02:43:37;13.82;;;11.73;;
14019;SDS011;7085;51.428;6.796;2022-10-15T02:46:05;13.63;;;12.00;;
14019;SDS011;7085;51.428;6.796;2022-10-15T02:48:33;14.13;;;12.68;;
14019;SDS011;7085;51.428;6.796;2022-10-15T02:51:02;15.98;;;12.63;;
14019;SDS011;7085;51.428;6.796;2022-10-15T02:53:29;14.13;;;12.35;;
14019;SDS011;7085;51.428;6.796;2022-10-15T02:55:56;13.95;;;12.48;;
14019;SDS011;7085;51.428;6.796;2022-10-15T02:58:23;13.85;;;12.52;;
14019;SDS011;7085;51.428;6.796;2022-10-15T03:00:50;15.02;;;12.38;;
14019;SDS011;7085;51.428;6.796;2022-10-15T03:03:17;12.93;;;11.40;;
14019;SDS011;7085;51.428;6.796;2022-10-15T03:05:44;14.68;;;13.25;;
14019;SDS011;7085;51.428;6.796;2022-10-15T03:08:13;14.18;;;12.23;;
14019;SDS011;7085;51.428;6.796;2022-10-15T03:10:40;15.88;;;12.32;;
14019;SDS011;7085;51.428;6.796;2022-10-15T03:13:07;13.75;;;12.32;;
14019;SDS011;7085;51.428;6.796;2022-10-15T03:15:35;13.32;;;12.02;;
14019;SDS011;7085;51.428;6.796;2022-10-15T03:18:02;13.95;;;11.80;;
14019;SDS011;7085;51.428;6.796;2022-10-15T03:20:29;15.70;;;12.10;;
14019;SDS011;7085;51.428;6.796;2022-10-15T03:22:56;13.55;;;11.80;;
14019;SDS011;7085;51.428;6.796;2022-10-15T03:25:24;16.58;;;12.25;;
14019;SDS011;7085;51.428;6.796;2022-10-15T03:27:51;16.05;;;13.18;;
14019;SDS011;7085;51.428;6.796;2022-10-15T03:30:18;14.20;;;12.80;;
14019;SDS011;7085;51.428;6.796;2022-10-15T03:32:46;13.90;;;11.73;;
14019;SDS011;7085;51.428;6.796;2022-10-15T03:35:13;13.32;;;12.02;;
14019;SDS011;7085;51.428;6.796;2022-10-15T03:37:40;14.30;;;12.23;;
14019;SDS011;7085;51.428;6.796;2022-10-15T03:40:07;19.10;;;14.02;;
14019;SDS011;7085;51.428;6.796;2022-10-15T03:42:36;14.60;;;11.68;;
14019;SDS011;7085;51.428;6.796;2022-10-15T03:45:03;16.08;;;13.27;;
14019;SDS011;7085;51.428;6.796;2022-10-15T03:47:30;18.98;;;13.43;;
14019;SDS011;7085;51.428;6.796;2022-10-15T03:49:57;14.85;;;12.45;;
14019;SDS011;7085;51.428;6.796;2022-10-15T03:52:24;15.65;;;13.48;;
14019;SDS011;7085;51.428;6.796;2022-10-15T03:54:51;15.40;;;13.80;;
14019;SDS011;7085;51.428;6.796;2022-10-15T03:57:18;14.73;;;13.30;;
14019;SDS011;7085;51.428;6.796;2022-10-15T03:59:46;16.33;;;13.43;;
14019;SDS011;7085;51.428;6.796;2022-10-15T04:02:13;13.98;;;12.55;;
14019;SDS011;7085;51.428;6.796;2022-10-15T04:04:40;14.80;;;13.30;;
14019;SDS011;7085;51.428;6.796;2022-10-15T04:07:07;16.05;;;12.68;;
14019;SDS011;7085;51.428;6.796;2022-10-15T04:09:35;14.07;;;12.40;;
14019;SDS011;7085;51.428;6.796;2022-10-15T04:12:02;14.68;;;12.90;;
14019;SDS011;7085;51.428;6.796;2022-10-15T04:14:29;15.38;;;13.77;;
14019;SDS011;7085;51.428;6.796;2022-10-15T04:16:57;13.88;;;12.38;;
14019;SDS011;7085;51.428;6.796;2022-10-15T04:19:24;14.65;;;12.52;;
14019;SDS011;7085;51.428;6.796;2022-10-15T04:21:51;15.45;;;13.35;;
14019;SDS011;7085;51.428;6.796;2022-10-15T04:24:18;16.15;;;13.95;;
14019;SDS011;7085;51.428;6.796;2022-10-15T04:26:45;15.25;;;13.07;;
14019;SDS011;7085;51.428;6.796;2022-10-15T04:29:12;16.75;;;12.63;;
14019;SDS011;7085;51.428;6.796;2022-10-15T04:31:40;14.90;;;13.30;;
14019;SDS011;7085;51.428;6.796;2022-10-15T04:34:09;15.15;;;13.55;;
14019;SDS011;7085;51.428;6.796;2022-10-15T04:36:36;14.88;;;12.57;;
14019;SDS011;7085;51.428;6.796;2022-10-15T04:39:03;15.15;;;13.23;;
14019;SDS011;7085;51.428;6.796;2022-10-15T04:41:30;14.57;;;12.88;;
14019;SDS011;7085;51.428;6.796;2022-10-15T04:43:57;14.98;;;13.13;;
14019;SDS011;7085;51.428;6.796;2022-10-15T04:46:25;14.93;;;11.70;;
14019;SDS011;7085;51.428;6.796;2022-10-15T04:48:52;16.50;;;13.38;;
14019;SDS011;7085;51.428;6.796;2022-10-15T04:51:23;14.88;;;13.38;;
14019;SDS011;7085;51.428;6.796;2022-10-15T04:53:50;15.88;;;13.25;;
14019;SDS011;7085;51.428;6.796;2022-10-15T04:56:18;17.17;;;12.60;;
14019;SDS011;7085;51.428;6.796;2022-10-15T04:58:46;15.75;;;13.63;;
14019;SDS011;7085;51.428;6.796;2022-10-15T05:01:14;16.83;;;14.32;;
14019;SDS011;7085;51.428;6.796;2022-10-15T05:03:42;15.73;;;13.25;;
14019;SDS011;7085;51.428;6.796;2022-10-15T05:06:10;16.98;;;13.95;;
14019;SDS011;7085;51.428;6.796;2022-10-15T05:08:39;14.98;;;13.05;;
14019;SDS011;7085;51.428;6.796;2022-10-15T05:11:08;16.02;;;13.45;;
14019;SDS011;7085;51.428;6.796;2022-10-15T05:13:35;15.35;;;13.75;;
14019;SDS011;7085;51.428;6.796;2022-10-15T05:16:12;13.82;;;12.45;;
14019;SDS011;7085;51.428;6.796;2022-10-15T05:18:40;14.45;;;12.48;;
14019;SDS011;7085;51.428;6.796;2022-10-15T05:21:08;18.38;;;13.32;;
14019;SDS011;7085;51.428;6.796;2022-10-15T05:23:35;17.27;;;13.48;;
14019;SDS011;7085;51.428;6.796;2022-10-15T05:26:05;16.20;;;12.90;;
14019;SDS011;7085;51.428;6.796;2022-10-15T05:28:32;18.85;;;13.13;;
14019;SDS011;7085;51.428;6.796;2022-10-15T05:31:03;22.35;;;14.00;;
14019;SDS011;7085;51.428;6.796;2022-10-15T05:33:30;17.05;;;13.30;;
14019;SDS011;7085;51.428;6.796;2022-10-15T05:35:57;16.27;;;13.45;;
14019;SDS011;7085;51.428;6.796;2022-10-15T05:38:24;15.48;;;13.63;;
14019;SDS011;7085;51.428;6.796;2022-10-15T05:40:51;16.52;;;14.43;;
14019;SDS011;7085;51.428;6.796;2022-10-15T05:43:19;18.17;;;14.35;;
14019;SDS011;7085;51.428;6.796;2022-10-15T05:45:46;16.65;;;13.65;;
14019;SDS011;7085;51.428;6.796;2022-10-15T05:48:14;17.48;;;14.63;;
14019;SDS011;7085;51.428;6.796;2022-10-15T05:50:41;18.05;;;14.27;;
14019;SDS011;7085;51.428;6.796;2022-10-15T05:53:08;18.13;;;13.75;;
14019;SDS011;7085;51.428;6.796;2022-10-15T05:55:35;18.98;;;14.65;;
14019;SDS011;7085;51.428;6.796;2022-10-15T05:58:02;17.42;;;15.00;;
14019;SDS011;7085;51.428;6.796;2022-10-15T06:00:31;17.85;;;14.40;;
14019;SDS011;7085;51.428;6.796;2022-10-15T06:02:58;17.63;;;14.13;;
14019;SDS011;7085;51.428;6.796;2022-10-15T06:05:25;15.63;;;13.82;;
14019;SDS011;7085;51.428;6.796;2022-10-15T06:07:52;19.67;;;14.98;;
14019;SDS011;7085;51.428;6.796;2022-10-15T06:10:19;20.35;;;13.20;;
14019;SDS011;7085;51.428;6.796;2022-10-15T06:12:47;17.13;;;13.13;;
14019;SDS011;7085;51.428;6.796;2022-10-15T06:15:15;17.35;;;14.00;;
14019;SDS011;7085;51.428;6.796;2022-10-15T06:17:43;16.67;;;12.93;;
14019;SDS011;7085;51.428;6.796;2022-10-15T06:20:11;16.90;;;13.63;;
14019;SDS011;7085;51.428;6.796;2022-10-15T06:22:38;16.38;;;12.57;;
14019;SDS011;7085;51.428;6.796;2022-10-15T06:25:05;16.55;;;12.95;;
14019;SDS011;7085;51.428;6.796;2022-10-15T06:27:32;17.17;;;13.63;;
14019;SDS011;7085;51.428;6.796;2022-10-15T06:29:59;18.05;;;13.60;;
14019;SDS011;7085;51.428;6.796;2022-10-15T06:32:26;17.02;;;13.43;;
14019;SDS011;7085;51.428;6.796;2022-10-15T06:34:55;17.13;;;13.38;;
14019;SDS011;7085;51.428;6.796;2022-10-15T06:37:22;14.43;;;12.98;;
14019;SDS011;7085;51.428;6.796;2022-10-15T06:39:49;18.63;;;13.38;;
14019;SDS011;7085;51.428;6.796;2022-10-15T06:42:16;18.63;;;14.55;;
14019;SDS011;7085;51.428;6.796;2022-10-15T06:44:43;17.00;;;14.50;;
14019;SDS011;7085;51.428;6.796;2022-10-15T06:47:10;17.45;;;14.02;;
14019;SDS011;7085;51.428;6.796;2022-10-15T06:49:37;17.50;;;12.95;;
14019;SDS011;7085;51.428;6.796;2022-10-15T06:52:05;16.38;;;13.52;;
14019;SDS011;7085;51.428;6.796;2022-10-15T06:54:32;16.02;;;13.13;;
14019;SDS011;7085;51.428;6.796;2022-10-15T06:56:59;16.65;;;13.73;;
14019;SDS011;7085;51.428;6.796;2022-10-15T06:59:26;16.25;;;13.70;;
14019;SDS011;7085;51.428;6.796;2022-10-15T07:01:53;18.52;;;14.20;;
14019;SDS011;7085;51.428;6.796;2022-10-15T07:04:21;21.48;;;13.52;;
14019;SDS011;7085;51.428;6.796;2022-10-15T07:06:48;16.77;;;13.15;;
14019;SDS011;7085;51.428;6.796;2022-10-15T07:09:16;15.55;;;13.00;;
14019;SDS011;7085;51.428;6.796;2022-10-15T07:11:44;16.27;;;14.07;;
14019;SDS011;7085;51.428;6.796;2022-10-15T07:14:12;18.08;;;14.68;;
14019;SDS011;7085;51.428;6.796;2022-10-15T07:16:39;18.83;;;14.85;;
14019;SDS011;7085;51.428;6.796;2022-10-15T07:19:06;18.20;;;14.52;;
14019;SDS011;7085;51.428;6.796;2022-10-15T07:21:33;17.08;;;14.27;;
14019;SDS011;7085;51.428;6.796;2022-10-15T07:24:00;18.33;;;14.57;;
14019;SDS011;7085;51.428;6.796;2022-10-15T07:26:28;18.45;;;14.18;;
14019;SDS011;7085;51.428;6.796;2022-10-15T07:28:55;17.08;;;14.73;;
14019;SDS011;7085;51.428;6.796;2022-10-15T07:31:23;16.45;;;14.68;;
14019;SDS011;7085;51.428;6.796;2022-10-15T07:33:50;17.48;;;14.85;;
14019;SDS011;7085;51.428;6.796;2022-10-15T07:36:17;18.98;;;15.30;;
14019;SDS011;7085;51.428;6.796;2022-10-15T07:38:44;18.65;;;14.75;;
14019;SDS011;7085;51.428;6.796;2022-10-15T07:41:12;17.98;;;15.50;;
14019;SDS011;7085;51.428;6.796;2022-10-15T07:43:40;16.77;;;14.55;;
14019;SDS011;7085;51.428;6.796;2022-10-15T07:46:24;20.50;;;15.57;;
14019;SDS011;7085;51.428;6.796;2022-10-15T07:48:52;19.85;;;15.32;;
14019;SDS011;7085;51.428;6.796;2022-10-15T07:51:19;18.02;;;14.63;;
14019;SDS011;7085;51.428;6.796;2022-10-15T07:53:46;16.05;;;14.18;;
14019;SDS011;7085;51.428;6.796;2022-10-15T07:56:13;19.63;;;15.55;;
14019;SDS011;7085;51.428;6.796;2022-10-15T07:58:42;19.42;;;14.52;;
14019;SDS011;7085;51.428;6.796;2022-10-15T08:01:15;16.10;;;14.07;;
14019;SDS011;7085;51.428;6.796;2022-10-15T08:03:43;18.33;;;15.10;;
14019;SDS011;7085;51.428;6.796;2022-10-15T08:06:10;15.80;;;13.15;;
14019;SDS011;7085;51.428;6.796;2022-10-15T08:08:37;17.05;;;13.98;;
14019;SDS011;7085;51.428;6.796;2022-10-15T08:11:04;15.65;;;13.38;;
14019;SDS011;7085;51.428;6.796;2022-10-15T08:13:31;17.33;;;14.63;;
14019;SDS011;7085;51.428;6.796;2022-10-15T08:16:00;16.27;;;13.98;;
14019;SDS011;7085;51.428;6.796;2022-10-15T08:18:27;18.00;;;14.75;;
14019;SDS011;7085;51.428;6.796;2022-10-15T08:20:56;16.67;;;13.65;;
14019;SDS011;7085;51.428;6.796;2022-10-15T08:23:24;21.20;;;13.82;;
14019;SDS011;7085;51.428;6.796;2022-10-15T08:25:51;12.95;;;11.57;;
14019;SDS011;7085;51.428;6.796;2022-10-15T08:28:18;13.30;;;11.00;;
14019;SDS011;7085;51.428;6.796;2022-10-15T08:30:45;12.27;;;10.98;;
14019;SDS011;7085;51.428;6.796;2022-10-15T08:33:13;10.05;;;9.10;;
14019;SDS011;7085;51.428;6.796;2022-10-15T08:35:40;12.10;;;9.70;;
14019;SDS011;7085;51.428;6.796;2022-10-15T08:38:07;9.98;;;8.98;;
14019;SDS011;7085;51.428;6.796;2022-10-15T08:40:35;9.35;;;8.20;;
14019;SDS011;7085;51.428;6.796;2022-10-15T08:43:02;9.90;;;8.57;;
14019;SDS011;7085;51.428;6.796;2022-10-15T08:45:30;8.77;;;7.90;;
14019;SDS011;7085;51.428;6.796;2022-10-15T08:48:00;8.50;;;7.70;;
14019;SDS011;7085;51.428;6.796;2022-10-15T08:50:33;8.52;;;7.72;;
14019;SDS011;7085;51.428;6.796;2022-10-15T08:53:01;7.55;;;6.95;;
14019;SDS011;7085;51.428;6.796;2022-10-15T08:55:30;7.97;;;7.20;;
14019;SDS011;7085;51.428;6.796;2022-10-15T08:58:01;8.98;;;7.65;;
14019;SDS011;7085;51.428;6.796;2022-10-15T09:00:33;8.68;;;7.55;;
14019;SDS011;7085;51.428;6.796;2022-10-15T09:03:01;8.45;;;6.10;;
14019;SDS011;7085;51.428;6.796;2022-10-15T09:05:34;7.18;;;6.43;;
14019;SDS011;7085;51.428;6.796;2022-10-15T09:08:06;6.28;;;5.68;;
14019;SDS011;7085;51.428;6.796;2022-10-15T09:10:38;7.10;;;5.35;;
14019;SDS011;7085;51.428;6.796;2022-10-15T09:13:08;5.30;;;4.80;;
14019;SDS011;7085;51.428;6.796;2022-10-15T09:15:40;5.05;;;4.60;;
14019;SDS011;7085;51.428;6.796;2022-10-15T09:18:09;7.22;;;4.38;;
14019;SDS011;7085;51.428;6.796;2022-10-15T09:20:38;5.30;;;3.47;;
14019;SDS011;7085;51.428;6.796;2022-10-15T09:23:08;3.45;;;3.15;;
14019;SDS011;7085;51.428;6.796;2022-10-15T09:25:37;4.05;;;2.63;;
14019;SDS011;7085;51.428;6.796;2022-10-15T09:28:08;4.05;;;2.10;;
14019;SDS011;7085;51.428;6.796;2022-10-15T09:30:36;2.03;;;1.90;;
14019;SDS011;7085;51.428;6.796;2022-10-15T09:33:06;2.85;;;1.90;;
14019;SDS011;7085;51.428;6.796;2022-10-15T09:35:36;2.47;;;1.73;;
14019;SDS011;7085;51.428;6.796;2022-10-15T09:38:08;1.38;;;1.27;;
14019;SDS011;7085;51.428;6.796;2022-10-15T09:40:43;1.08;;;1.05;;
14019;SDS011;7085;51.428;6.796;2022-10-15T09:43:12;1.33;;;1.23;;
14019;SDS011;7085;51.428;6.796;2022-10-15T09:45:40;1.70;;;1.60;;
14019;SDS011;7085;51.428;6.796;2022-10-15T09:48:11;2.33;;;1.20;;
14019;SDS011;7085;51.428;6.796;2022-10-15T09:50:40;2.17;;;1.45;;
14019;SDS011;7085;51.428;6.796;2022-10-15T09:53:12;1.60;;;1.45;;
14019;SDS011;7085;51.428;6.796;2022-10-15T09:55:41;2.72;;;1.13;;
14019;SDS011;7085;51.428;6.796;2022-10-15T09:58:11;1.20;;;1.10;;
14019;SDS011;7085;51.428;6.796;2022-10-15T10:00:57;1.30;;;1.13;;
14019;SDS011;7085;51.428;6.796;2022-10-15T10:03:25;0.93;;;0.93;;
14019;SDS011;7085;51.428;6.796;2022-10-15T10:05:58;2.47;;;0.82;;
14019;SDS011;7085;51.428;6.796;2022-10-15T10:08:28;0.80;;;0.80;;
14019;SDS011;7085;51.428;6.796;2022-10-15T10:10:57;0.77;;;0.77;;
14019;SDS011;7085;51.428;6.796;2022-10-15T10:13:26;1.30;;;0.70;;
14019;SDS011;7085;51.428;6.796;2022-10-15T10:15:54;0.65;;;0.65;;
14019;SDS011;7085;51.428;6.796;2022-10-15T10:18:23;2.47;;;0.80;;
14019;SDS011;7085;51.428;6.796;2022-10-15T10:20:51;2.35;;;0.80;;
14019;SDS011;7085;51.428;6.796;2022-10-15T10:23:21;0.90;;;0.90;;
14019;SDS011;7085;51.428;6.796;2022-10-15T10:25:50;1.10;;;0.65;;
14019;SDS011;7085;51.428;6.796;2022-10-15T10:28:18;0.45;;;0.45;;
14019;SDS011;7085;51.428;6.796;2022-10-15T10:30:51;0.55;;;0.55;;
14019;SDS011;7085;51.428;6.796;2022-10-15T10:33:20;0.77;;;0.77;;
14019;SDS011;7085;51.428;6.796;2022-10-15T10:35:50;0.68;;;0.60;;
14019;SDS011;7085;51.428;6.796;2022-10-15T10:38:18;1.80;;;0.88;;
14019;SDS011;7085;51.428;6.796;2022-10-15T10:40:48;2.05;;;0.80;;
14019;SDS011;7085;51.428;6.796;2022-10-15T10:43:22;1.08;;;0.85;;
14019;SDS011;7085;51.428;6.796;2022-10-15T10:45:56;0.90;;;0.70;;
14019;SDS011;7085;51.428;6.796;2022-10-15T10:48:25;1.05;;;1.05;;
14019;SDS011;7085;51.428;6.796;2022-10-15T10:53:45;2.08;;;1.10;;
14019;SDS011;7085;51.428;6.796;2022-10-15T10:56:13;1.00;;;0.80;;
14019;SDS011;7085;51.428;6.796;2022-10-15T10:58:41;0.80;;;0.80;;
14019;SDS011;7085;51.428;6.796;2022-10-15T11:01:09;2.83;;;1.00;;
14019;SDS011;7085;51.428;6.796;2022-10-15T11:03:38;2.50;;;1.20;;
14019;SDS011;7085;51.428;6.796;2022-10-15T11:06:11;1.20;;;1.10;;
14019;SDS011;7085;51.428;6.796;2022-10-15T11:08:44;2.30;;;1.40;;
14019;SDS011;7085;51.428;6.796;2022-10-15T11:11:17;2.35;;;1.30;;
14019;SDS011;7085;51.428;6.796;2022-10-15T11:13:51;1.60;;;1.50;;
14019;SDS011;7085;51.428;6.796;2022-10-15T11:16:20;4.22;;;1.80;;
14019;SDS011;7085;51.428;6.796;2022-10-15T11:18:53;1.90;;;1.80;;
14019;SDS011;7085;51.428;6.796;2022-10-15T11:21:24;1.80;;;1.65;;
14019;SDS011;7085;51.428;6.796;2022-10-15T11:24:00;1.50;;;1.35;;
14019;SDS011;7085;51.428;6.796;2022-10-15T11:26:34;3.10;;;1.05;;
14019;SDS011;7085;51.428;6.796;2022-10-15T11:29:08;1.27;;;1.17;;
14019;SDS011;7085;51.428;6.796;2022-10-15T11:31:38;3.10;;;1.20;;
14019;SDS011;7085;51.428;6.796;2022-10-15T11:34:13;1.27;;;1.17;;
14019;SDS011;7085;51.428;6.796;2022-10-15T11:36:48;1.13;;;1.02;;
14019;SDS011;7085;51.428;6.796;2022-10-15T11:39:24;2.13;;;0.88;;
14019;SDS011;7085;51.428;6.796;2022-10-15T11:41:56;1.20;;;1.10;;
14019;SDS011;7085;51.428;6.796;2022-10-15T11:44:36;1.00;;;1.00;;
14019;SDS011;7085;51.428;6.796;2022-10-15T11:47:08;1.88;;;1.30;;
14019;SDS011;7085;51.428;6.796;2022-10-15T11:49:38;1.83;;;1.40;;
14019;SDS011;7085;51.428;6.796;2022-10-15T11:52:12;1.45;;;1.25;;
14019;SDS011;7085;51.428;6.796;2022-10-15T11:54:42;3.67;;;1.30;;
14019;SDS011;7085;51.428;6.796;2022-10-15T11:57:12;1.30;;;1.20;;
14019;SDS011;7085;51.428;6.796;2022-10-15T11:59:42;0.98;;;0.98;;
14019;SDS011;7085;51.428;6.796;2022-10-15T12:02:13;0.90;;;0.90;;
14019;SDS011;7085;51.428;6.796;2022-10-15T12:04:41;2.03;;;1.17;;
14019;SDS011;7085;51.428;6.796;2022-10-15T12:07:11;0.80;;;0.80;;
14019;SDS011;7085;51.428;6.796;2022-10-15T12:09:39;3.53;;;1.15;;
14019;SDS011;7085;51.428;6.796;2022-10-15T12:12:08;1.95;;;1.13;;
14019;SDS011;7085;51.428;6.796;2022-10-15T12:14:38;1.75;;;0.93;;
14019;SDS011;7085;51.428;6.796;2022-10-15T12:17:10;0.80;;;0.80;;
14019;SDS011;7085;51.428;6.796;2022-10-15T12:19:40;1.27;;;1.17;;
14019;SDS011;7085;51.428;6.796;2022-10-15T12:22:11;1.33;;;1.23;;
14019;SDS011;7085;51.428;6.796;2022-10-15T12:24:48;1.35;;;1.20;;
14019;SDS011;7085;51.428;6.796;2022-10-15T12:27:20;1.60;;;1.20;;
14019;SDS011;7085;51.428;6.796;2022-10-15T12:29:48;1.20;;;1.10;;
14019;SDS011;7085;51.428;6.796;2022-10-15T12:32:21;1.25;;;1.15;;
14019;SDS011;7085;51.428;6.796;2022-10-15T12:34:53;2.13;;;1.10;;
14019;SDS011;7085;51.428;6.796;2022-10-15T12:37:21;1.25;;;1.15;;
14019;SDS011;7085;51.428;6.796;2022-10-15T12:39:53;1.23;;;0.98;;
14019;SDS011;7085;51.428;6.796;2022-10-15T12:42:21;1.02;;;0.80;;
14019;SDS011;7085;51.428;6.796;2022-10-15T12:44:48;1.85;;;1.00;;
14019;SDS011;7085;51.428;6.796;2022-10-15T12:47:24;2.20;;;1.23;;
14019;SDS011;7085;51.428;6.796;2022-10-15T12:50:15;1.20;;;0.82;;
14019;SDS011;7085;51.428;6.796;2022-10-15T12:52:55;1.20;;;1.10;;
14019;SDS011;7085;51.428;6.796;2022-10-15T12:55:32;3.22;;;1.20;;
14019;SDS011;7085;51.428;6.796;2022-10-15T12:58:00;0.90;;;0.90;;
14019;SDS011;7085;51.428;6.796;2022-10-15T13:00:37;2.10;;;1.00;;
14019;SDS011;7085;51.428;6.796;2022-10-15T13:03:13;1.02;;;0.90;;
14019;SDS011;7085;51.428;6.796;2022-10-15T13:05:41;0.95;;;0.77;;
14019;SDS011;7085;51.428;6.796;2022-10-15T13:08:11;1.02;;;0.93;;
14019;SDS011;7085;51.428;6.796;2022-10-15T13:10:39;1.00;;;1.00;;
14019;SDS011;7085;51.428;6.796;2022-10-15T13:13:11;1.25;;;0.98;;
14019;SDS011;7085;51.428;6.796;2022-10-15T13:15:39;2.38;;;1.42;;
14019;SDS011;7085;51.428;6.796;2022-10-15T13:18:06;1.75;;;0.90;;
14019;SDS011;7085;51.428;6.796;2022-10-15T13:20:36;1.08;;;1.08;;
14019;SDS011;7085;51.428;6.796;2022-10-15T13:23:08;1.35;;;1.25;;
14019;SDS011;7085;51.428;6.796;2022-10-15T13:25:35;0.80;;;0.80;;
14019;SDS011;7085;51.428;6.796;2022-10-15T13:30:47;0.70;;;0.70;;
14019;SDS011;7085;51.428;6.796;2022-10-15T13:33:14;0.70;;;0.70;;
14019;SDS011;7085;51.428;6.796;2022-10-15T13:35:42;0.65;;;0.65;;
14019;SDS011;7085;51.428;6.796;2022-10-15T13:38:12;0.63;;;0.63;;
14019;SDS011;7085;51.428;6.796;2022-10-15T13:40:45;0.90;;;0.77;;
14019;SDS011;7085;51.428;6.796;2022-10-15T13:43:15;0.77;;;0.77;;
14019;SDS011;7085;51.428;6.796;2022-10-15T13:45:45;1.38;;;1.13;;
14019;SDS011;7085;51.428;6.796;2022-10-15T13:48:14;1.10;;;0.98;;
14019;SDS011;7085;51.428;6.796;2022-10-15T13:50:47;1.27;;;0.77;;
14019;SDS011;7085;51.428;6.796;2022-10-15T13:53:16;0.68;;;0.68;;
14019;SDS011;7085;51.428;6.796;2022-10-15T13:55:47;2.17;;;0.60;;
14019;SDS011;7085;51.428;6.796;2022-10-15T13:58:16;1.70;;;1.00;;
14019;SDS011;7085;51.428;6.796;2022-10-15T14:00:47;1.63;;;0.98;;
14019;SDS011;7085;51.428;6.796;2022-10-15T14:03:17;1.23;;;0.70;;
14019;SDS011;7085;51.428;6.796;2022-10-15T14:05:45;1.40;;;0.80;;
14019;SDS011;7085;51.428;6.796;2022-10-15T14:08:18;1.00;;;1.00;;
14019;SDS011;7085;51.428;6.796;2022-10-15T14:10:46;1.05;;;0.98;;
14019;SDS011;7085;51.428;6.796;2022-10-15T14:13:13;0.98;;;0.98;;
14019;SDS011;7085;51.428;6.796;2022-10-15T14:15:41;0.85;;;0.80;;
14019;SDS011;7085;51.428;6.796;2022-10-15T14:18:08;1.63;;;1.05;;
14019;SDS011;7085;51.428;6.796;2022-10-15T14:20:35;1.50;;;1.20;;
14019;SDS011;7085;51.428;6.796;2022-10-15T14:23:03;4.68;;;2.30;;
14019;SDS011;7085;51.428;6.796;2022-10-15T14:25:31;3.88;;;2.08;;
14019;SDS011;7085;51.428;6.796;2022-10-15T14:27:58;4.72;;;1.88;;
14019;SDS011;7085;51.428;6.796;2022-10-15T14:30:26;2.53;;;1.60;;
14019;SDS011;7085;51.428;6.796;2022-10-15T14:32:53;1.67;;;0.90;;
14019;SDS011;7085;51.428;6.796;2022-10-15T14:35:22;1.30;;;1.00;;
14019;SDS011;7085;51.428;6.796;2022-10-15T14:37:57;2.35;;;1.00;;
14019;SDS011;7085;51.428;6.796;2022-10-15T14:40:24;2.65;;;1.30;;
14019;SDS011;7085;51.428;6.796;2022-10-15T14:43:02;1.85;;;1.35;;
14019;SDS011;7085;51.428;6.796;2022-10-15T14:45:31;2.03;;;1.20;;
14019;SDS011;7085;51.428;6.796;2022-10-15T14:48:00;2.63;;;1.27;;
14019;SDS011;7085;51.428;6.796;2022-10-15T14:50:28;0.98;;;0.98;;
14019;SDS011;7085;51.428;6.796;2022-10-15T14:52:56;1.40;;;1.30;;
14019;SDS011;7085;51.428;6.796;2022-10-15T14:55:26;1.30;;;1.20;;
14019;SDS011;7085;51.428;6.796;2022-10-15T14:57:57;2.38;;;1.42;;
14019;SDS011;7085;51.428;6.796;2022-10-15T15:00:28;1.52;;;1.42;;
14019;SDS011;7085;51.428;6.796;2022-10-15T15:02:58;1.48;;;1.30;;
14019;SDS011;7085;51.428;6.796;2022-10-15T15:05:26;2.22;;;1.13;;